• Join FlightAware (Why Join?)
  • Login
  • US Flag GB Flag 
03:42 EST


 

Airport Tracker/Info


-or-


 

Live Flight TrackerFlight Track Log ✈ AWE997 ✈ 15-Apr-2013 ✈ KORD - KPHL

Flight Track Log - Related Links

Times and Time Zones

All times are in EDT time to prevent confusion due to time zone crossing. See the AWE997 flight status page for this flight to view local times or setup timezone preferences in your user account.

Time Position Orientation Groundspeed Altitude Reporting Facility
EDT Latitude Longitude Course Direction KTS MPH feet Rate Location/Type
11:01 41.9333 -87.8833 85° East 177 204 2,700  Level Chicago TRACON
11:02 41.9333 -87.8000 90° East 259 298 4,900 2,220 Climbing Chicago TRACON
11:03 41.9509 -87.3763 97° East  Level FlightAware Approximate
11:04 41.9383 -87.2022 95° East  Level FlightAware Approximate
11:04 41.9600 -87.5897 80° East 313 360 9,500  Level Chicago Center
11:05 41.9333 -87.0276 90° East  Level FlightAware Approximate
11:05 41.9572 -87.4714 92° East 315 362 12,200  Level Chicago Center
11:06 41.9343 -86.8528 85° East  Level FlightAware Approximate
11:06 41.9544 -87.3433 92° East 339 390 14,000  Level Chicago Center
11:07 41.9481 -87.1633 93° East 403 464 15,700 1,740 Climbing Chicago Center
11:08 41.9453 -87.0033 91° East 428 493 17,700 1,920 Climbing Chicago Center
11:09 41.9486 -86.8406 88° East 438 504 19,700 1,740 Climbing Chicago Center
11:10 41.9503 -86.6822 89° East 451 519 21,300 1,440 Climbing Chicago Center
11:11 41.9528 -86.5064 89° East 469 540 22,700 1,440 Climbing Chicago Center
11:12 41.9542 -86.3250 89° East 483 556 24,300 1,560 Climbing Chicago Center
11:13 41.9469 -86.1069 92° East 487 560 26,000 1,320 Climbing Chicago Center
11:14 41.9286 -85.9225 98° East 496 571 27,000 960 Climbing Chicago Center
11:15 41.9100 -85.7303 97° East 513 590 28,000 1,020 Climbing Chicago Center
11:16 41.8917 -85.5333 97° East 525 604 29,200 960 Climbing Chicago Center
11:17 41.8769 -85.3639 97° East 531 611 29,800 1,020 Climbing Cleveland Center
11:18 41.8581 -85.1644 97° East 548 631 31,100 1,260 Climbing Cleveland Center
11:18 41.8514 -85.1303 105° East 537 618 31,400 1,500 Climbing Chicago Center
11:19 41.8386 -84.9678 96° East 543 625 32,600 1,200 Climbing Cleveland Center
11:20 41.8167 -84.7739 99° East 531 611 33,600 780 Climbing Cleveland Center
11:21 41.7947 -84.5719 98° East 531 611 34,200 780 Climbing Cleveland Center
11:22 41.7806 -84.3761 95° East 531 611 35,200 900 Climbing Cleveland Center
11:23 41.7736 -84.2003 93° East 525 604 36,100 900 Climbing Cleveland Center
11:24 41.7608 -84.0072 95° East 520 598 37,000 420 Climbing Cleveland Center
11:25 41.7203 -83.8214 106° East 520 598 37,000  Level Cleveland Center
11:26 41.6775 -83.6358 107° East 520 598 37,000  Level Cleveland Center
11:27 41.6364 -83.4533 107° East 515 593 37,000  Level Cleveland Center
11:28 41.5928 -83.2736 108° East 510 587 37,000  Level Cleveland Center
11:29 41.5531 -83.0944 106° East 510 587 37,000  Level Cleveland Center
11:30 41.5069 -82.9122 109° East 510 587 37,000  Level Cleveland Center
11:31 41.4644 -82.7278 107° East 510 587 37,000  Level Cleveland Center
11:32 41.4158 -82.5325 108° East 510 587 37,000  Level Cleveland Center
11:33 41.3731 -82.3539 108° East 510 587 37,000  Level Cleveland Center
11:34 41.3278 -82.1731 108° East 510 587 37,000  Level Cleveland Center
11:35 41.2922 -82.0092 106° East 510 587 37,000  Level Cleveland Center
11:36 41.2464 -81.8286 109° East 510 587 37,000  Level Cleveland Center
11:37 41.2003 -81.6456 108° East 510 587 37,000  Level Cleveland Center
11:38 41.1539 -81.4628 109° East 516 594 37,000  Level Cleveland Center
11:39 41.0992 -81.2608 110° East 522 601 37,000  Level Cleveland Center
11:40 41.0522 -81.0814 109° East 522 601 37,000  Level Cleveland Center
11:41 41.0111 -80.9133 108° East 527 606 37,000  Level Cleveland Center
11:42 40.9656 -80.7317 108° East 527 606 37,000  Level Cleveland Center
11:43 40.9114 -80.5336 110° East 527 606 37,000  Level Cleveland Center
11:44 40.8633 -80.3497 109° East 527 606 37,000  Level Cleveland Center
11:45 40.8169 -80.1936 111° Southeast 522 601 37,000  Level Cleveland Center
11:46 40.7536 -80.0158 115° Southeast 522 601 37,000  Level Cleveland Center
11:47 40.6858 -79.8247 115° Southeast 522 601 37,000  Level Cleveland Center
11:48 40.6242 -79.6531 115° Southeast 522 601 37,000 -480 Level Cleveland Center
11:49 40.5600 -79.4789 116° Southeast 522 601 36,100 -1,080 Descending Cleveland Center
11:50 40.4958 -79.3053 116° Southeast 522 601 34,900 -1,440 Descending Cleveland Center
11:51 40.4356 -79.1564 118° Southeast 522 601 33,300 -960 Descending Cleveland Center
11:52 40.3728 -78.9889 116° Southeast 517 595 33,000 -180 Descending Cleveland Center
11:53 40.3267 -78.8156 109° East 507 583 33,000 -60 Level Cleveland Center
11:54 40.3131 -78.6308 95° East 494 568 32,900 -1,440 Descending Cleveland Center
11:56 40.3161 -78.3203 89° East 514 592 29,100 -2,160 Descending New York Center
11:57 40.3125 -78.1456 91° East 492 566 27,100 -1,920 Descending New York Center
11:58 40.3122 -77.9822 90° East 469 540 25,300 -1,080 Descending New York Center
11:59 40.3097 -77.8158 91° East 456 525 25,000 -600 Descending New York Center
12:00 40.2986 -77.6511 95° East 456 525 24,200 -900 Descending New York Center
12:01 40.2772 -77.4803 99° East 461 531 23,300 -1,020 Descending New York Center
12:02 40.2536 -77.3067 100° East 473 544 22,300 -1,080 Descending New York Center
12:03 40.2281 -77.1247 100° East 468 539 21,200 -1,020 Descending New York Center
12:04 40.2056 -76.9569 100° East 468 539 20,300 -900 Descending New York Center
12:05 40.1883 -76.8058 98° East 451 519 19,400 -1,260 Descending New York Center
12:06 40.1722 -76.6714 99° East 396 456 17,800 -2,040 Descending New York Center
12:07 40.1556 -76.5450 100° East 359 413 15,400 -2,340 Descending New York Center
12:08 40.1397 -76.4431 101° East 331 381 13,300 -1,980 Descending New York Center
12:09 40.1289 -76.3583 99° East 292 336 12,200 -1,680 Descending FAA TRACON SMA TRACON (SMA)
12:09 40.1258 -76.3261 97° East 290 334 11,700 -1,380 Descending FAA TRACON SMA TRACON (SMA)
12:09 40.1211 -76.2956 101° East 289 333 11,300 -1,500 Descending FAA TRACON SMA TRACON (SMA)
12:10 40.1167 -76.2550 98° East 286 329 10,700 -1,680 Descending FAA TRACON SMA TRACON (SMA)
12:10 40.1147 -76.2233 95° East 287 330 10,200 -1,380 Descending FAA TRACON SMA TRACON (SMA)
12:10 40.1133 -76.1936 93° East 285 328 9,800 -1,380 Descending FAA TRACON SMA TRACON (SMA)
12:11 40.1108 -76.1522 95° East 284 327 9,300 -1,080 Descending FAA TRACON SMA TRACON (SMA)
12:11 40.1092 -76.1206 94° East 283 326 9,100 -480 Descending FAA TRACON SMA TRACON (SMA)
12:11 40.1064 -76.0894 97° East 283 326 9,000 -480 Descending FAA TRACON SMA TRACON (SMA)
12:12 40.1039 -76.0500 95° East 283 326 8,800 -600 Descending FAA TRACON SMA TRACON (SMA)
12:12 40.1014 -76.0200 96° East 283 326 8,600 -480 Descending FAA TRACON SMA TRACON (SMA)
12:12 40.0989 -75.9881 96° East 280 322 8,500 -480 Descending FAA TRACON SMA TRACON (SMA)
12:13 40.0961 -75.9494 95° East 279 321 8,300 -480 Descending FAA TRACON SMA TRACON (SMA)
12:13 40.0944 -75.9186 94° East 279 321 8,200 -480 Descending FAA TRACON SMA TRACON (SMA)
12:13 40.0922 -75.8878 95° East 279 321 8,000 -1,080 Descending FAA TRACON SMA TRACON (SMA)
12:14 40.0894 -75.8506 96° East 279 321 7,500 -1,380 Descending FAA TRACON SMA TRACON (SMA)
12:14 40.0869 -75.8208 96° East 279 321 7,100 -1,380 Descending FAA TRACON SMA TRACON (SMA)
12:14 40.0842 -75.7861 96° East 278 320 6,600 -1,500 Descending FAA TRACON SMA TRACON (SMA)
12:15 40.0819 -75.7481 94° East 279 321 6,100 -900 Descending FAA TRACON SMA TRACON (SMA)
12:15 40.0772 -75.7186 102° East 278 320 6,000 -180 Descending FAA TRACON SMA TRACON (SMA)
12:15 40.0625 -75.6964 131° Southeast 271 312 6,000  Level FAA TRACON SMA TRACON (SMA)
12:16 40.0353 -75.6850 162° South 256 295 6,000  Level FAA TRACON SMA TRACON (SMA)
12:16 40.0153 -75.6786 166° South 240 276 6,000  Level FAA TRACON SMA TRACON (SMA)
12:16 39.9967 -75.6725 166° South 228 262 6,000  Level FAA TRACON SMA TRACON (SMA)
12:17 39.9761 -75.6656 165° South 200 230 6,000  Level FAA TRACON SMA TRACON (SMA)
12:17 39.9606 -75.6603 165° South 190 219 6,000  Level FAA TRACON SMA TRACON (SMA)
12:17 39.9458 -75.6553 165° South 184 212 6,000 -600 Level FAA TRACON SMA TRACON (SMA)
12:18 39.9283 -75.6486 164° South 173 199 5,600 -1,200 Descending FAA TRACON SMA TRACON (SMA)
12:18 39.9136 -75.6439 166° South 174 200 5,200 -1,260 Descending FAA TRACON SMA TRACON (SMA)
12:18 39.8992 -75.6394 167° South 175 201 4,700 -1,500 Descending FAA TRACON SMA TRACON (SMA)
12:19 39.8800 -75.6342 168° South 181 208 4,100 -1,620 Descending FAA TRACON SMA TRACON (SMA)
12:19 39.8644 -75.6297 168° South 188 216 3,700 -1,020 Descending FAA TRACON SMA TRACON (SMA)
12:19 39.8456 -75.6239 167° South 182 209 3,500 -780 Descending FAA TRACON SMA TRACON (SMA)
12:20 39.8317 -75.6183 163° South 179 206 3,200 -600 Descending FAA TRACON SMA TRACON (SMA)
12:20 39.8250 -75.6014 117° Southeast 174 200 3,100 -180 Descending FAA TRACON SMA TRACON (SMA)
12:20 39.8200 -75.5836 110° East 178 205 3,100 -180 Level FAA TRACON SMA TRACON (SMA)
12:21 39.8139 -75.5617 110° East 169 194 3,000  Descending FAA TRACON SMA TRACON (SMA)
12:21 39.8094 -75.5431 107° East 171 197 3,100  Climbing FAA TRACON SMA TRACON (SMA)
12:21 39.8111 -75.5233 84° East 180 207 3,000  Descending FAA TRACON SMA TRACON (SMA)
12:22 39.8156 -75.4992 77° East 180 207 3,100 300 Climbing FAA TRACON SMA TRACON (SMA)